createdAt,value
2018-03-29T21:13:22.975Z,67.00
2018-03-29T21:15:54.949Z,67.10
2018-03-29T21:18:23.033Z,67.20
2018-03-29T21:20:51.067Z,67.40
2018-03-29T21:23:19.099Z,67.50
2018-03-29T21:25:47.927Z,67.60
2018-03-29T21:28:15.955Z,67.60
2018-03-29T21:30:55.943Z,67.70
2018-03-29T21:33:23.972Z,67.60
2018-03-29T21:35:52.810Z,68.10
2018-03-29T21:38:20.839Z,68.00
2018-03-29T21:40:48.880Z,67.90
2018-03-29T21:43:16.908Z,67.90
2018-03-29T21:45:44.981Z,68.10
2018-03-29T21:48:13.004Z,68.70
2018-03-29T21:50:41.033Z,68.20
2018-03-29T21:53:09.062Z,67.60
2018-03-29T21:55:37.095Z,68.20
2018-03-29T21:58:05.122Z,68.00
2018-03-29T22:00:33.168Z,68.40
2018-03-29T22:03:01.208Z,68.40
2018-03-29T22:05:29.947Z,67.80
2018-03-29T22:07:57.987Z,68.30
2018-03-29T22:10:26.015Z,68.50
2018-03-29T22:13:07.876Z,68.00
2018-03-29T22:15:36.703Z,68.00
2018-03-29T22:18:04.740Z,68.00
2018-03-29T22:20:33.547Z,68.60
2018-03-29T22:23:01.576Z,68.70
2018-03-29T22:25:29.636Z,68.60
2018-03-29T22:27:57.659Z,68.50
2018-03-29T22:30:25.703Z,68.50
2018-03-29T22:32:53.723Z,68.60
2018-03-29T22:35:21.770Z,67.90
2018-03-29T22:37:49.810Z,68.80
2018-03-29T22:40:17.848Z,68.60
2018-03-29T22:42:45.916Z,69.10
2018-03-29T22:45:13.960Z,68.80
2018-03-29T22:47:42.015Z,69.50
2018-03-29T22:50:10.051Z,67.90
2018-03-29T22:52:38.079Z,69.20
2018-03-29T22:55:06.132Z,70.10
2018-03-29T22:57:34.185Z,69.00
2018-03-29T23:00:02.244Z,69.30
2018-03-29T23:02:30.295Z,69.40
2018-03-29T23:04:58.345Z,69.30
2018-03-29T23:07:26.388Z,68.90
2018-03-29T23:09:55.191Z,69.10
2018-03-29T23:12:23.231Z,69.10
2018-03-29T23:14:51.263Z,68.80
2018-03-29T23:17:19.328Z,68.50
2018-03-29T23:19:47.367Z,68.90
2018-03-29T23:22:15.400Z,69.40
2018-03-29T23:24:43.434Z,69.30
2018-03-29T23:27:11.471Z,69.20
2018-03-29T23:29:39.499Z,69.10
2018-03-29T23:32:07.540Z,69.10
2018-03-29T23:34:35.576Z,68.80
2018-03-29T23:37:03.608Z,69.50
2018-03-29T23:39:31.658Z,69.60
2018-03-29T23:41:59.683Z,69.70
2018-03-29T23:44:27.711Z,69.90
2018-03-29T23:46:55.759Z,69.50
2018-03-29T23:49:31.630Z,69.50
2018-03-29T23:51:59.722Z,70.00
2018-03-29T23:54:27.774Z,70.30
2018-03-29T23:56:55.819Z,70.20
2018-03-29T23:59:23.863Z,70.10
